Snowline Camp, California
Current Conditions -  °F | °C
As of 9:55 AM on Saturday 25 Oct 2014 (Local Time) from KPVF Reporting Station
Overcast Overcast  
Wind Chill: 50°   Ceiling: 200
Heat Index: 50°   Visibility: 0mi
Dew Point: 50°   Wind: 0mph
Humidity: 100%   Direction: NA
Pressure: 30.1"   Gusts: NA
Location:  38.7573°N, 120.677°W
Report Text: KPVF 251655Z AUTO 00000KT M1/4SM OVC002 10/10 A3010 RMK AO1 P0010
Loading
Personal Weather Stations






























Interactive Weather Map
Tropical Storm Tracking
New forecast layout! Learn more

10-Day Weather Forecast

Advertisements
Track Severe Weather on mobile